sensor_id;sensor_type;location;lat;lon;timestamp;temperature;humidity
33077;DHT22;38790;51.964;5.924;2022-07-23T00:01:20;16.60;99.90
33077;DHT22;38790;51.964;5.924;2022-07-23T00:03:47;16.50;99.90
33077;DHT22;38790;51.964;5.924;2022-07-23T00:06:13;16.40;99.90
33077;DHT22;38790;51.964;5.924;2022-07-23T00:08:39;16.40;99.90
33077;DHT22;38790;51.964;5.924;2022-07-23T00:11:05;16.40;99.90
33077;DHT22;38790;51.964;5.924;2022-07-23T00:13:32;16.40;99.90
33077;DHT22;38790;51.964;5.924;2022-07-23T00:15:58;16.30;99.90
33077;DHT22;38790;51.964;5.924;2022-07-23T00:18:24;16.20;99.90
33077;DHT22;38790;51.964;5.924;2022-07-23T00:20:50;16.20;99.90
33077;DHT22;38790;51.964;5.924;2022-07-23T00:23:17;16.10;99.90
33077;DHT22;38790;51.964;5.924;2022-07-23T00:25:43;16.10;99.90
33077;DHT22;38790;51.964;5.924;2022-07-23T00:28:11;16.10;99.90
33077;DHT22;38790;51.964;5.924;2022-07-23T00:30:37;16.00;99.90
33077;DHT22;38790;51.964;5.924;2022-07-23T00:33:06;16.00;99.90
33077;DHT22;38790;51.964;5.924;2022-07-23T00:35:35;15.90;99.90
33077;DHT22;38790;51.964;5.924;2022-07-23T00:38:04;16.00;99.90
33077;DHT22;38790;51.964;5.924;2022-07-23T00:40:31;15.90;99.90
33077;DHT22;38790;51.964;5.924;2022-07-23T00:42:57;15.90;99.90
33077;DHT22;38790;51.964;5.924;2022-07-23T00:45:25;15.80;99.90
33077;DHT22;38790;51.964;5.924;2022-07-23T00:47:51;15.70;99.90
33077;DHT22;38790;51.964;5.924;2022-07-23T00:50:17;15.70;99.90
33077;DHT22;38790;51.964;5.924;2022-07-23T00:52:44;15.70;99.90
33077;DHT22;38790;51.964;5.924;2022-07-23T00:55:11;15.70;99.90
33077;DHT22;38790;51.964;5.924;2022-07-23T00:57:38;15.60;99.90
33077;DHT22;38790;51.964;5.924;2022-07-23T01:00:08;15.50;99.90
33077;DHT22;38790;51.964;5.924;2022-07-23T01:02:35;15.50;99.90
33077;DHT22;38790;51.964;5.924;2022-07-23T01:05:01;15.50;99.90
33077;DHT22;38790;51.964;5.924;2022-07-23T01:07:28;15.40;99.90
33077;DHT22;38790;51.964;5.924;2022-07-23T01:09:54;15.40;99.90
33077;DHT22;38790;51.964;5.924;2022-07-23T01:12:20;15.40;99.90
33077;DHT22;38790;51.964;5.924;2022-07-23T01:14:57;15.30;99.90
33077;DHT22;38790;51.964;5.924;2022-07-23T01:17:24;15.30;99.90
33077;DHT22;38790;51.964;5.924;2022-07-23T01:19:50;15.20;99.90
33077;DHT22;38790;51.964;5.924;2022-07-23T01:22:18;15.10;99.90
33077;DHT22;38790;51.964;5.924;2022-07-23T01:24:45;15.10;99.90
33077;DHT22;38790;51.964;5.924;2022-07-23T01:27:11;15.00;99.90
33077;DHT22;38790;51.964;5.924;2022-07-23T01:29:39;14.90;99.90
33077;DHT22;38790;51.964;5.924;2022-07-23T01:32:06;14.90;99.90
33077;DHT22;38790;51.964;5.924;2022-07-23T01:34:32;14.80;99.90
33077;DHT22;38790;51.964;5.924;2022-07-23T01:36:58;14.80;99.90
33077;DHT22;38790;51.964;5.924;2022-07-23T01:39:24;14.80;99.90
33077;DHT22;38790;51.964;5.924;2022-07-23T01:41:50;14.90;99.90
33077;DHT22;38790;51.964;5.924;2022-07-23T01:44:16;14.80;99.90
33077;DHT22;38790;51.964;5.924;2022-07-23T01:46:42;14.80;99.90
33077;DHT22;38790;51.964;5.924;2022-07-23T01:49:09;14.70;99.90
33077;DHT22;38790;51.964;5.924;2022-07-23T01:51:35;14.70;99.90
33077;DHT22;38790;51.964;5.924;2022-07-23T01:54:01;14.70;99.90
33077;DHT22;38790;51.964;5.924;2022-07-23T01:56:27;14.70;99.90
33077;DHT22;38790;51.964;5.924;2022-07-23T01:58:53;14.70;99.90
33077;DHT22;38790;51.964;5.924;2022-07-23T02:01:19;14.70;99.90
33077;DHT22;38790;51.964;5.924;2022-07-23T02:03:45;14.70;99.90
33077;DHT22;38790;51.964;5.924;2022-07-23T02:06:11;14.60;99.90
33077;DHT22;38790;51.964;5.924;2022-07-23T02:08:37;14.60;99.90
33077;DHT22;38790;51.964;5.924;2022-07-23T02:11:03;14.60;99.90
33077;DHT22;38790;51.964;5.924;2022-07-23T02:13:30;14.70;99.90
33077;DHT22;38790;51.964;5.924;2022-07-23T02:15:56;14.60;99.90
33077;DHT22;38790;51.964;5.924;2022-07-23T02:18:22;14.60;99.90
33077;DHT22;38790;51.964;5.924;2022-07-23T02:20:48;14.60;99.90
33077;DHT22;38790;51.964;5.924;2022-07-23T02:23:14;14.50;99.90
33077;DHT22;38790;51.964;5.924;2022-07-23T02:25:40;14.60;99.90
33077;DHT22;38790;51.964;5.924;2022-07-23T02:28:06;14.60;99.90
33077;DHT22;38790;51.964;5.924;2022-07-23T02:30:32;14.60;99.90
33077;DHT22;38790;51.964;5.924;2022-07-23T02:32:58;14.60;99.90
33077;DHT22;38790;51.964;5.924;2022-07-23T02:35:25;14.50;99.90
33077;DHT22;38790;51.964;5.924;2022-07-23T02:37:51;14.50;99.90
33077;DHT22;38790;51.964;5.924;2022-07-23T02:40:17;14.50;99.90
33077;DHT22;38790;51.964;5.924;2022-07-23T02:42:44;14.50;99.90
33077;DHT22;38790;51.964;5.924;2022-07-23T02:45:10;14.50;99.90
33077;DHT22;38790;51.964;5.924;2022-07-23T02:47:36;14.50;99.90
33077;DHT22;38790;51.964;5.924;2022-07-23T02:50:02;14.50;99.90
33077;DHT22;38790;51.964;5.924;2022-07-23T02:52:31;14.50;99.90
33077;DHT22;38790;51.964;5.924;2022-07-23T02:54:57;14.60;99.90
33077;DHT22;38790;51.964;5.924;2022-07-23T02:57:23;14.50;99.90
33077;DHT22;38790;51.964;5.924;2022-07-23T02:59:49;14.50;99.90
33077;DHT22;38790;51.964;5.924;2022-07-23T03:02:15;14.50;99.90
33077;DHT22;38790;51.964;5.924;2022-07-23T03:04:41;14.50;99.90
33077;DHT22;38790;51.964;5.924;2022-07-23T03:07:08;14.50;99.90
33077;DHT22;38790;51.964;5.924;2022-07-23T03:09:34;14.50;99.90
33077;DHT22;38790;51.964;5.924;2022-07-23T03:12:00;14.50;99.90
33077;DHT22;38790;51.964;5.924;2022-07-23T03:14:27;14.50;99.90
33077;DHT22;38790;51.964;5.924;2022-07-23T03:16:53;14.50;99.90
33077;DHT22;38790;51.964;5.924;2022-07-23T03:19:20;14.50;99.90
33077;DHT22;38790;51.964;5.924;2022-07-23T03:21:46;14.40;99.90
33077;DHT22;38790;51.964;5.924;2022-07-23T03:24:12;14.40;99.90
33077;DHT22;38790;51.964;5.924;2022-07-23T03:26:38;14.30;99.90
33077;DHT22;38790;51.964;5.924;2022-07-23T03:29:05;14.20;99.90
33077;DHT22;38790;51.964;5.924;2022-07-23T03:31:31;14.20;99.90
33077;DHT22;38790;51.964;5.924;2022-07-23T03:33:58;14.20;99.90
33077;DHT22;38790;51.964;5.924;2022-07-23T03:36:24;14.30;99.90
33077;DHT22;38790;51.964;5.924;2022-07-23T03:38:50;14.30;99.90
33077;DHT22;38790;51.964;5.924;2022-07-23T03:41:17;14.30;99.90
33077;DHT22;38790;51.964;5.924;2022-07-23T03:43:43;14.30;99.90
33077;DHT22;38790;51.964;5.924;2022-07-23T03:46:10;14.30;99.90
33077;DHT22;38790;51.964;5.924;2022-07-23T03:48:36;14.20;99.90
33077;DHT22;38790;51.964;5.924;2022-07-23T03:51:02;14.20;99.90
33077;DHT22;38790;51.964;5.924;2022-07-23T03:53:28;14.20;99.90
33077;DHT22;38790;51.964;5.924;2022-07-23T03:55:54;14.20;99.90
33077;DHT22;38790;51.964;5.924;2022-07-23T03:58:20;14.20;99.90
33077;DHT22;38790;51.964;5.924;2022-07-23T04:00:46;14.30;99.90
33077;DHT22;38790;51.964;5.924;2022-07-23T04:03:12;14.30;99.90
33077;DHT22;38790;51.964;5.924;2022-07-23T04:05:38;14.30;99.90
33077;DHT22;38790;51.964;5.924;2022-07-23T04:08:05;14.40;99.90
33077;DHT22;38790;51.964;5.924;2022-07-23T04:10:31;14.40;99.90
33077;DHT22;38790;51.964;5.924;2022-07-23T04:12:57;14.40;99.90
33077;DHT22;38790;51.964;5.924;2022-07-23T04:15:23;14.30;99.90
33077;DHT22;38790;51.964;5.924;2022-07-23T04:17:49;14.30;99.90
33077;DHT22;38790;51.964;5.924;2022-07-23T04:20:15;14.30;99.90
33077;DHT22;38790;51.964;5.924;2022-07-23T04:22:42;14.30;99.90
33077;DHT22;38790;51.964;5.924;2022-07-23T04:25:08;14.30;99.90
33077;DHT22;38790;51.964;5.924;2022-07-23T04:27:34;14.40;99.90
33077;DHT22;38790;51.964;5.924;2022-07-23T04:30:00;14.50;99.90
33077;DHT22;38790;51.964;5.924;2022-07-23T04:32:26;14.50;99.90
33077;DHT22;38790;51.964;5.924;2022-07-23T04:34:52;14.60;99.90
33077;DHT22;38790;51.964;5.924;2022-07-23T04:37:18;14.70;99.90
33077;DHT22;38790;51.964;5.924;2022-07-23T04:39:44;14.80;99.90
33077;DHT22;38790;51.964;5.924;2022-07-23T04:42:10;15.00;99.90
33077;DHT22;38790;51.964;5.924;2022-07-23T04:44:36;15.90;99.90
33077;DHT22;38790;51.964;5.924;2022-07-23T04:47:02;16.40;99.90
33077;DHT22;38790;51.964;5.924;2022-07-23T04:49:29;16.40;99.90
33077;DHT22;38790;51.964;5.924;2022-07-23T04:51:55;16.10;99.90
33077;DHT22;38790;51.964;5.924;2022-07-23T04:54:21;16.00;99.90
33077;DHT22;38790;51.964;5.924;2022-07-23T04:56:47;16.00;99.90
33077;DHT22;38790;51.964;5.924;2022-07-23T04:59:13;15.90;99.90
33077;DHT22;38790;51.964;5.924;2022-07-23T05:01:40;15.80;99.90
33077;DHT22;38790;51.964;5.924;2022-07-23T05:04:07;15.80;99.90
33077;DHT22;38790;51.964;5.924;2022-07-23T05:06:33;15.80;99.90
33077;DHT22;38790;51.964;5.924;2022-07-23T05:08:59;15.80;99.90
33077;DHT22;38790;51.964;5.924;2022-07-23T05:11:25;15.70;99.90
33077;DHT22;38790;51.964;5.924;2022-07-23T05:13:51;15.80;99.90
33077;DHT22;38790;51.964;5.924;2022-07-23T05:16:17;15.80;99.90
33077;DHT22;38790;51.964;5.924;2022-07-23T05:18:44;15.80;99.90
33077;DHT22;38790;51.964;5.924;2022-07-23T05:21:10;15.70;99.90
33077;DHT22;38790;51.964;5.924;2022-07-23T05:23:36;15.70;99.90
33077;DHT22;38790;51.964;5.924;2022-07-23T05:26:02;15.80;99.90
33077;DHT22;38790;51.964;5.924;2022-07-23T05:28:28;15.90;99.90
33077;DHT22;38790;51.964;5.924;2022-07-23T05:30:54;16.10;99.90
33077;DHT22;38790;51.964;5.924;2022-07-23T05:33:20;16.30;99.90
33077;DHT22;38790;51.964;5.924;2022-07-23T05:35:46;16.50;99.90
33077;DHT22;38790;51.964;5.924;2022-07-23T05:38:13;16.90;99.90
33077;DHT22;38790;51.964;5.924;2022-07-23T05:40:39;17.20;99.90
33077;DHT22;38790;51.964;5.924;2022-07-23T05:43:05;17.30;99.90
33077;DHT22;38790;51.964;5.924;2022-07-23T05:45:31;17.50;99.90
33077;DHT22;38790;51.964;5.924;2022-07-23T05:47:57;17.40;99.90
33077;DHT22;38790;51.964;5.924;2022-07-23T05:50:23;17.40;99.90
33077;DHT22;38790;51.964;5.924;2022-07-23T05:52:49;17.40;99.90
33077;DHT22;38790;51.964;5.924;2022-07-23T05:55:15;17.50;99.90
33077;DHT22;38790;51.964;5.924;2022-07-23T05:57:41;17.60;99.90
33077;DHT22;38790;51.964;5.924;2022-07-23T06:00:09;17.50;99.90
33077;DHT22;38790;51.964;5.924;2022-07-23T06:02:35;17.50;99.90
33077;DHT22;38790;51.964;5.924;2022-07-23T06:05:01;17.50;99.90
33077;DHT22;38790;51.964;5.924;2022-07-23T06:07:27;17.50;99.90
33077;DHT22;38790;51.964;5.924;2022-07-23T06:09:53;17.80;99.90
33077;DHT22;38790;51.964;5.924;2022-07-23T06:12:19;18.00;99.90
33077;DHT22;38790;51.964;5.924;2022-07-23T06:14:46;18.30;99.90
33077;DHT22;38790;51.964;5.924;2022-07-23T06:17:14;18.50;99.90
33077;DHT22;38790;51.964;5.924;2022-07-23T06:19:40;18.70;99.90
33077;DHT22;38790;51.964;5.924;2022-07-23T06:22:06;18.90;99.90
33077;DHT22;38790;51.964;5.924;2022-07-23T06:24:32;19.10;99.90
33077;DHT22;38790;51.964;5.924;2022-07-23T06:26:58;19.30;99.90
33077;DHT22;38790;51.964;5.924;2022-07-23T06:29:24;19.80;99.90
33077;DHT22;38790;51.964;5.924;2022-07-23T06:31:50;19.70;99.90
33077;DHT22;38790;51.964;5.924;2022-07-23T06:34:16;19.90;99.90
33077;DHT22;38790;51.964;5.924;2022-07-23T06:36:42;20.50;99.90
33077;DHT22;38790;51.964;5.924;2022-07-23T06:39:08;20.90;99.90
33077;DHT22;38790;51.964;5.924;2022-07-23T06:41:34;21.10;99.90
33077;DHT22;38790;51.964;5.924;2022-07-23T06:44:00;21.10;99.90
33077;DHT22;38790;51.964;5.924;2022-07-23T06:46:27;21.20;99.90
33077;DHT22;38790;51.964;5.924;2022-07-23T06:48:53;21.50;99.90
33077;DHT22;38790;51.964;5.924;2022-07-23T06:51:19;21.60;99.90
33077;DHT22;38790;51.964;5.924;2022-07-23T06:53:45;21.80;99.90
33077;DHT22;38790;51.964;5.924;2022-07-23T06:56:11;21.90;99.90
33077;DHT22;38790;51.964;5.924;2022-07-23T06:58:37;22.10;99.90
33077;DHT22;38790;51.964;5.924;2022-07-23T07:01:03;22.10;99.90
33077;DHT22;38790;51.964;5.924;2022-07-23T07:03:29;22.00;99.90
33077;DHT22;38790;51.964;5.924;2022-07-23T07:05:55;22.30;99.90
33077;DHT22;38790;51.964;5.924;2022-07-23T07:08:23;22.50;99.90
33077;DHT22;38790;51.964;5.924;2022-07-23T07:10:50;22.50;99.90
33077;DHT22;38790;51.964;5.924;2022-07-23T07:13:16;22.40;99.90
33077;DHT22;38790;51.964;5.924;2022-07-23T07:15:42;22.80;99.90
33077;DHT22;38790;51.964;5.924;2022-07-23T07:18:08;22.50;99.90
33077;DHT22;38790;51.964;5.924;2022-07-23T07:20:34;22.40;99.90
33077;DHT22;38790;51.964;5.924;2022-07-23T07:23:00;22.70;99.90
33077;DHT22;38790;51.964;5.924;2022-07-23T07:25:26;22.70;99.90
33077;DHT22;38790;51.964;5.924;2022-07-23T07:27:53;22.30;99.90
33077;DHT22;38790;51.964;5.924;2022-07-23T07:30:19;22.10;99.90
33077;DHT22;38790;51.964;5.924;2022-07-23T07:32:45;22.40;99.90
33077;DHT22;38790;51.964;5.924;2022-07-23T07:35:11;22.60;99.90
33077;DHT22;38790;51.964;5.924;2022-07-23T07:37:37;22.90;99.90
33077;DHT22;38790;51.964;5.924;2022-07-23T07:40:03;23.10;99.90
33077;DHT22;38790;51.964;5.924;2022-07-23T07:42:30;23.50;99.90
33077;DHT22;38790;51.964;5.924;2022-07-23T07:44:58;23.20;99.90
33077;DHT22;38790;51.964;5.924;2022-07-23T07:47:24;23.20;99.90
33077;DHT22;38790;51.964;5.924;2022-07-23T07:49:50;23.40;99.90
33077;DHT22;38790;51.964;5.924;2022-07-23T07:52:16;23.70;99.90
33077;DHT22;38790;51.964;5.924;2022-07-23T07:54:43;23.80;99.90
33077;DHT22;38790;51.964;5.924;2022-07-23T07:57:09;23.80;99.90
33077;DHT22;38790;51.964;5.924;2022-07-23T07:59:35;23.90;99.90
33077;DHT22;38790;51.964;5.924;2022-07-23T08:02:02;23.70;99.90
33077;DHT22;38790;51.964;5.924;2022-07-23T08:04:28;23.60;99.90
33077;DHT22;38790;51.964;5.924;2022-07-23T08:06:54;23.80;99.90
33077;DHT22;38790;51.964;5.924;2022-07-23T08:09:20;24.10;99.90
33077;DHT22;38790;51.964;5.924;2022-07-23T08:11:46;24.10;99.90
33077;DHT22;38790;51.964;5.924;2022-07-23T08:14:12;24.10;99.90
33077;DHT22;38790;51.964;5.924;2022-07-23T08:16:38;24.20;99.90
33077;DHT22;38790;51.964;5.924;2022-07-23T08:19:04;24.20;99.90
33077;DHT22;38790;51.964;5.924;2022-07-23T08:21:30;23.80;99.90
33077;DHT22;38790;51.964;5.924;2022-07-23T08:23:56;23.40;99.90
33077;DHT22;38790;51.964;5.924;2022-07-23T08:26:22;23.90;99.90
33077;DHT22;38790;51.964;5.924;2022-07-23T08:28:48;24.20;99.90
33077;DHT22;38790;51.964;5.924;2022-07-23T08:31:14;24.00;99.90
33077;DHT22;38790;51.964;5.924;2022-07-23T08:33:42;24.10;99.90
33077;DHT22;38790;51.964;5.924;2022-07-23T08:36:08;24.10;99.90
33077;DHT22;38790;51.964;5.924;2022-07-23T08:38:34;23.60;99.90
33077;DHT22;38790;51.964;5.924;2022-07-23T08:41:02;23.30;99.90
33077;DHT22;38790;51.964;5.924;2022-07-23T08:43:30;23.20;99.90
33077;DHT22;38790;51.964;5.924;2022-07-23T08:45:57;23.30;99.90
33077;DHT22;38790;51.964;5.924;2022-07-23T08:48:27;23.50;99.90
33077;DHT22;38790;51.964;5.924;2022-07-23T08:50:56;23.50;99.90
33077;DHT22;38790;51.964;5.924;2022-07-23T08:53:24;23.20;99.90
33077;DHT22;38790;51.964;5.924;2022-07-23T08:55:56;23.60;99.90
33077;DHT22;38790;51.964;5.924;2022-07-23T08:58:24;23.70;99.90
33077;DHT22;38790;51.964;5.924;2022-07-23T09:00:50;24.10;99.90
33077;DHT22;38790;51.964;5.924;2022-07-23T09:03:31;24.00;99.90
33077;DHT22;38790;51.964;5.924;2022-07-23T09:05:59;24.10;99.90
33077;DHT22;38790;51.964;5.924;2022-07-23T09:08:40;24.90;99.90
33077;DHT22;38790;51.964;5.924;2022-07-23T09:11:09;24.90;99.90
33077;DHT22;38790;51.964;5.924;2022-07-23T09:13:42;25.30;99.90
33077;DHT22;38790;51.964;5.924;2022-07-23T09:16:16;25.70;99.90
33077;DHT22;38790;51.964;5.924;2022-07-23T09:19:04;26.00;99.90
33077;DHT22;38790;51.964;5.924;2022-07-23T09:21:32;26.30;99.90
33077;DHT22;38790;51.964;5.924;2022-07-23T09:26:33;26.20;99.90
33077;DHT22;38790;51.964;5.924;2022-07-23T09:29:19;26.00;99.90
33077;DHT22;38790;51.964;5.924;2022-07-23T09:32:00;26.20;99.90
33077;DHT22;38790;51.964;5.924;2022-07-23T09:34:34;26.40;99.90
33077;DHT22;38790;51.964;5.924;2022-07-23T09:37:14;26.50;99.90
33077;DHT22;38790;51.964;5.924;2022-07-23T09:39:41;26.30;99.90
33077;DHT22;38790;51.964;5.924;2022-07-23T09:42:24;26.10;99.90
33077;DHT22;38790;51.964;5.924;2022-07-23T09:44:56;26.60;99.90
33077;DHT22;38790;51.964;5.924;2022-07-23T09:47:24;26.00;99.90
33077;DHT22;38790;51.964;5.924;2022-07-23T09:52:34;24.40;99.90
33077;DHT22;38790;51.964;5.924;2022-07-23T09:55:02;24.20;99.90
33077;DHT22;38790;51.964;5.924;2022-07-23T09:57:29;24.40;99.90
33077;DHT22;38790;51.964;5.924;2022-07-23T10:00:00;24.80;99.90
33077;DHT22;38790;51.964;5.924;2022-07-23T10:02:28;25.60;99.90
33077;DHT22;38790;51.964;5.924;2022-07-23T10:04:54;26.20;99.90
33077;DHT22;38790;51.964;5.924;2022-07-23T10:07:22;26.40;99.90
33077;DHT22;38790;51.964;5.924;2022-07-23T10:09:50;26.60;99.90
33077;DHT22;38790;51.964;5.924;2022-07-23T10:12:19;26.50;99.90
33077;DHT22;38790;51.964;5.924;2022-07-23T10:14:58;26.80;99.90
33077;DHT22;38790;51.964;5.924;2022-07-23T10:17:24;26.60;99.90
33077;DHT22;38790;51.964;5.924;2022-07-23T10:19:50;26.60;99.90
33077;DHT22;38790;51.964;5.924;2022-07-23T10:22:22;26.60;99.90
33077;DHT22;38790;51.964;5.924;2022-07-23T10:24:53;26.80;99.90
33077;DHT22;38790;51.964;5.924;2022-07-23T10:36:09;26.90;99.90
33077;DHT22;38790;51.964;5.924;2022-07-23T10:39:05;27.00;99.90
33077;DHT22;38790;51.964;5.924;2022-07-23T10:41:37;26.80;99.90
33077;DHT22;38790;51.964;5.924;2022-07-23T10:46:59;26.90;99.90
33077;DHT22;38790;51.964;5.924;2022-07-23T10:49:30;26.20;99.90
33077;DHT22;38790;51.964;5.924;2022-07-23T10:52:22;25.60;99.90
33077;DHT22;38790;51.964;5.924;2022-07-23T10:55:38;25.80;99.90
33077;DHT22;38790;51.964;5.924;2022-07-23T10:57:48;26.40;99.90
33077;DHT22;38790;51.964;5.924;2022-07-23T11:00:22;26.90;99.90
33077;DHT22;38790;51.964;5.924;2022-07-23T11:02:51;27.20;99.90
33077;DHT22;38790;51.964;5.924;2022-07-23T11:05:23;27.20;99.90
33077;DHT22;38790;51.964;5.924;2022-07-23T11:10:38;27.60;99.90
33077;DHT22;38790;51.964;5.924;2022-07-23T11:13:26;26.60;99.90
33077;DHT22;38790;51.964;5.924;2022-07-23T11:24:06;26.10;99.90
33077;DHT22;38790;51.964;5.924;2022-07-23T11:26:59;26.10;99.90
33077;DHT22;38790;51.964;5.924;2022-07-23T11:37:04;26.40;99.90
33077;DHT22;38790;51.964;5.924;2022-07-23T11:39:31;26.20;99.90
33077;DHT22;38790;51.964;5.924;2022-07-23T11:41:58;26.70;99.90
33077;DHT22;38790;51.964;5.924;2022-07-23T11:44:29;26.90;99.90
33077;DHT22;38790;51.964;5.924;2022-07-23T11:47:00;26.80;99.90
33077;DHT22;38790;51.964;5.924;2022-07-23T11:49:26;27.20;99.90
33077;DHT22;38790;51.964;5.924;2022-07-23T11:52:13;27.60;99.90
33077;DHT22;38790;51.964;5.924;2022-07-23T11:57:32;28.10;99.90
33077;DHT22;38790;51.964;5.924;2022-07-23T12:00:20;28.20;99.90
33077;DHT22;38790;51.964;5.924;2022-07-23T12:02:51;28.10;99.90
33077;DHT22;38790;51.964;5.924;2022-07-23T12:05:20;28.00;99.90
33077;DHT22;38790;51.964;5.924;2022-07-23T12:07:48;28.20;99.90
33077;DHT22;38790;51.964;5.924;2022-07-23T12:10:17;27.70;99.90
33077;DHT22;38790;51.964;5.924;2022-07-23T12:12:46;27.60;99.90
33077;DHT22;38790;51.964;5.924;2022-07-23T12:15:13;27.80;99.90
33077;DHT22;38790;51.964;5.924;2022-07-23T12:17:42;27.90;99.90
33077;DHT22;38790;51.964;5.924;2022-07-23T12:20:13;27.60;99.90
33077;DHT22;38790;51.964;5.924;2022-07-23T12:22:45;27.90;99.90
33077;DHT22;38790;51.964;5.924;2022-07-23T12:25:12;27.20;99.90
33077;DHT22;38790;51.964;5.924;2022-07-23T12:27:39;27.30;99.90
33077;DHT22;38790;51.964;5.924;2022-07-23T12:30:16;26.90;99.90
33077;DHT22;38790;51.964;5.924;2022-07-23T12:32:47;26.80;99.90
33077;DHT22;38790;51.964;5.924;2022-07-23T12:35:14;27.40;99.90
33077;DHT22;38790;51.964;5.924;2022-07-23T12:37:42;27.70;99.90
33077;DHT22;38790;51.964;5.924;2022-07-23T12:40:23;27.50;99.90
33077;DHT22;38790;51.964;5.924;2022-07-23T12:42:53;27.20;99.90
33077;DHT22;38790;51.964;5.924;2022-07-23T12:45:19;27.30;99.90
33077;DHT22;38790;51.964;5.924;2022-07-23T12:48:04;27.60;99.90
33077;DHT22;38790;51.964;5.924;2022-07-23T12:50:51;28.00;99.90
33077;DHT22;38790;51.964;5.924;2022-07-23T12:53:21;28.30;99.90
33077;DHT22;38790;51.964;5.924;2022-07-23T12:55:49;27.40;99.90
33077;DHT22;38790;51.964;5.924;2022-07-23T12:58:18;27.30;99.90
33077;DHT22;38790;51.964;5.924;2022-07-23T13:00:58;26.70;99.90
33077;DHT22;38790;51.964;5.924;2022-07-23T13:05:56;26.40;99.90
33077;DHT22;38790;51.964;5.924;2022-07-23T13:08:23;26.00;99.90
33077;DHT22;38790;51.964;5.924;2022-07-23T13:10:50;25.60;99.90
33077;DHT22;38790;51.964;5.924;2022-07-23T13:13:24;25.90;99.90
33077;DHT22;38790;51.964;5.924;2022-07-23T13:15:52;26.70;99.90
33077;DHT22;38790;51.964;5.924;2022-07-23T13:18:19;27.10;99.90
33077;DHT22;38790;51.964;5.924;2022-07-23T13:20:47;27.20;99.90
33077;DHT22;38790;51.964;5.924;2022-07-23T13:23:13;27.10;99.90
33077;DHT22;38790;51.964;5.924;2022-07-23T13:25:40;27.00;99.90
33077;DHT22;38790;51.964;5.924;2022-07-23T13:28:06;27.30;99.90
33077;DHT22;38790;51.964;5.924;2022-07-23T13:30:33;27.50;99.90
33077;DHT22;38790;51.964;5.924;2022-07-23T13:33:00;27.20;99.90
33077;DHT22;38790;51.964;5.924;2022-07-23T13:35:26;27.60;99.90
33077;DHT22;38790;51.964;5.924;2022-07-23T13:37:52;28.00;99.90
33077;DHT22;38790;51.964;5.924;2022-07-23T13:40:19;28.10;99.90
33077;DHT22;38790;51.964;5.924;2022-07-23T13:42:45;28.20;99.90
33077;DHT22;38790;51.964;5.924;2022-07-23T13:45:11;28.30;99.90
33077;DHT22;38790;51.964;5.924;2022-07-23T13:47:38;28.20;99.90
33077;DHT22;38790;51.964;5.924;2022-07-23T13:50:05;28.30;99.90
33077;DHT22;38790;51.964;5.924;2022-07-23T13:52:31;28.40;99.90
33077;DHT22;38790;51.964;5.924;2022-07-23T13:55:01;28.40;99.90
33077;DHT22;38790;51.964;5.924;2022-07-23T13:57:30;28.40;99.90
33077;DHT22;38790;51.964;5.924;2022-07-23T13:59:56;28.60;99.90
33077;DHT22;38790;51.964;5.924;2022-07-23T14:02:23;28.70;99.90
33077;DHT22;38790;51.964;5.924;2022-07-23T14:04:50;28.80;99.90
33077;DHT22;38790;51.964;5.924;2022-07-23T14:07:16;28.50;99.90
33077;DHT22;38790;51.964;5.924;2022-07-23T14:09:42;28.50;99.90
33077;DHT22;38790;51.964;5.924;2022-07-23T14:12:09;28.30;99.90
33077;DHT22;38790;51.964;5.924;2022-07-23T14:14:35;27.80;99.90
33077;DHT22;38790;51.964;5.924;2022-07-23T14:17:02;27.80;99.90
33077;DHT22;38790;51.964;5.924;2022-07-23T14:19:29;27.90;99.90
33077;DHT22;38790;51.964;5.924;2022-07-23T14:21:55;27.90;99.90
33077;DHT22;38790;51.964;5.924;2022-07-23T14:24:21;27.90;99.90
33077;DHT22;38790;51.964;5.924;2022-07-23T14:26:47;27.70;99.90
33077;DHT22;38790;51.964;5.924;2022-07-23T14:29:13;27.50;99.90
33077;DHT22;38790;51.964;5.924;2022-07-23T14:31:39;27.40;99.90
33077;DHT22;38790;51.964;5.924;2022-07-23T14:34:05;27.40;99.90
33077;DHT22;38790;51.964;5.924;2022-07-23T14:36:31;27.50;99.90
33077;DHT22;38790;51.964;5.924;2022-07-23T14:38:57;27.60;99.90
33077;DHT22;38790;51.964;5.924;2022-07-23T14:41:24;27.40;99.90
33077;DHT22;38790;51.964;5.924;2022-07-23T14:43:50;27.40;99.90
33077;DHT22;38790;51.964;5.924;2022-07-23T14:46:16;27.60;99.90
33077;DHT22;38790;51.964;5.924;2022-07-23T14:48:42;27.90;99.90
33077;DHT22;38790;51.964;5.924;2022-07-23T14:51:08;28.20;99.90
33077;DHT22;38790;51.964;5.924;2022-07-23T14:53:34;28.00;99.90
33077;DHT22;38790;51.964;5.924;2022-07-23T14:56:00;27.60;99.90
33077;DHT22;38790;51.964;5.924;2022-07-23T14:58:26;27.20;99.90
33077;DHT22;38790;51.964;5.924;2022-07-23T15:00:52;27.40;99.90
33077;DHT22;38790;51.964;5.924;2022-07-23T15:03:20;27.40;99.90
33077;DHT22;38790;51.964;5.924;2022-07-23T15:05:46;26.80;99.90
33077;DHT22;38790;51.964;5.924;2022-07-23T15:08:12;26.50;99.90
33077;DHT22;38790;51.964;5.924;2022-07-23T15:10:38;26.50;99.90
33077;DHT22;38790;51.964;5.924;2022-07-23T15:13:04;26.60;99.90
33077;DHT22;38790;51.964;5.924;2022-07-23T15:15:30;26.70;99.90
33077;DHT22;38790;51.964;5.924;2022-07-23T15:17:56;26.70;99.90
33077;DHT22;38790;51.964;5.924;2022-07-23T15:20:23;26.90;99.90
33077;DHT22;38790;51.964;5.924;2022-07-23T15:22:49;26.90;99.90
33077;DHT22;38790;51.964;5.924;2022-07-23T15:25:15;27.10;99.90
33077;DHT22;38790;51.964;5.924;2022-07-23T15:27:41;27.40;99.90
33077;DHT22;38790;51.964;5.924;2022-07-23T15:30:08;27.50;99.90
33077;DHT22;38790;51.964;5.924;2022-07-23T15:32:34;27.30;99.90
33077;DHT22;38790;51.964;5.924;2022-07-23T15:35:00;26.90;99.90
33077;DHT22;38790;51.964;5.924;2022-07-23T15:37:27;27.00;99.90
33077;DHT22;38790;51.964;5.924;2022-07-23T15:39:53;27.20;99.90
33077;DHT22;38790;51.964;5.924;2022-07-23T15:42:19;27.20;99.90
33077;DHT22;38790;51.964;5.924;2022-07-23T15:44:45;27.10;99.90
33077;DHT22;38790;51.964;5.924;2022-07-23T15:47:14;27.20;99.90
33077;DHT22;38790;51.964;5.924;2022-07-23T15:49:40;27.50;99.90
33077;DHT22;38790;51.964;5.924;2022-07-23T15:52:07;27.30;99.90
33077;DHT22;38790;51.964;5.924;2022-07-23T15:54:36;27.40;99.90
33077;DHT22;38790;51.964;5.924;2022-07-23T15:57:03;27.50;99.90
33077;DHT22;38790;51.964;5.924;2022-07-23T15:59:30;27.70;99.90
33077;DHT22;38790;51.964;5.924;2022-07-23T16:01:57;27.90;99.90
33077;DHT22;38790;51.964;5.924;2022-07-23T16:04:23;27.90;99.90
33077;DHT22;38790;51.964;5.924;2022-07-23T16:06:49;27.90;99.90
33077;DHT22;38790;51.964;5.924;2022-07-23T16:09:16;28.00;99.90
33077;DHT22;38790;51.964;5.924;2022-07-23T16:11:42;27.80;99.90
33077;DHT22;38790;51.964;5.924;2022-07-23T16:14:08;27.80;99.90